createdAt,value
2018-08-24T00:01:27.950Z,25.16
2018-08-24T00:03:56.254Z,25.20
2018-08-24T00:06:24.379Z,24.73
2018-08-24T00:08:52.642Z,25.05
2018-08-24T00:11:21.585Z,24.97
2018-08-24T00:13:49.683Z,24.83
2018-08-24T00:16:22.130Z,25.17
2018-08-24T00:18:50.234Z,24.92
2018-08-24T00:21:18.294Z,25.48
2018-08-24T00:23:46.347Z,25.28
2018-08-24T00:26:14.557Z,25.46
2018-08-24T00:28:47.759Z,25.41
2018-08-24T00:31:15.834Z,25.97
2018-08-24T00:33:48.067Z,25.91
2018-08-24T00:36:17.030Z,25.76
2018-08-24T00:38:45.207Z,25.32
2018-08-24T00:41:13.637Z,25.32
2018-08-24T00:43:41.670Z,25.00
2018-08-24T00:46:10.867Z,24.96
2018-08-24T00:48:39.267Z,24.92
2018-08-24T00:51:08.679Z,25.39
2018-08-24T00:53:38.692Z,25.12
2018-08-24T00:56:07.378Z,25.02
2018-08-24T00:58:36.694Z,24.95
2018-08-24T01:01:05.276Z,24.82
2018-08-24T01:03:33.420Z,24.74
2018-08-24T01:06:01.494Z,24.62
2018-08-24T01:08:30.094Z,24.83
2018-08-24T01:10:58.279Z,24.60
2018-08-24T01:13:26.373Z,24.84
2018-08-24T01:15:59.829Z,24.30
2018-08-24T01:18:33.658Z,24.50
2018-08-24T01:21:02.228Z,24.28
2018-08-24T01:23:32.174Z,24.56
2018-08-24T01:26:00.718Z,24.15
2018-08-24T01:28:29.499Z,24.37
2018-08-24T01:31:03.173Z,24.57
2018-08-24T01:33:31.923Z,24.62
2018-08-24T01:36:00.007Z,24.43
2018-08-24T01:38:28.135Z,24.56
2018-08-24T01:40:56.244Z,24.14
2018-08-24T01:43:24.403Z,24.19
2018-08-24T01:45:57.997Z,24.43
2018-08-24T01:48:26.116Z,24.50
2018-08-24T01:50:54.158Z,24.51
2018-08-24T01:53:22.239Z,24.59
2018-08-24T01:55:50.296Z,24.29
2018-08-24T01:58:18.350Z,24.27
2018-08-24T02:00:46.454Z,24.31
2018-08-24T02:03:14.470Z,24.15
2018-08-24T02:05:42.526Z,24.04
2018-08-24T02:08:10.580Z,24.18
2018-08-24T02:10:38.728Z,24.23
2018-08-24T02:13:12.178Z,24.05
2018-08-24T02:15:46.245Z,24.07
2018-08-24T02:18:19.642Z,24.49
2018-08-24T02:20:52.978Z,24.50
2018-08-24T02:23:21.059Z,24.33
2018-08-24T02:25:49.162Z,24.47
2018-08-24T02:28:17.272Z,24.31
2018-08-24T02:30:45.339Z,24.52
2018-08-24T02:33:14.419Z,24.30
2018-08-24T02:35:42.579Z,24.39
2018-08-24T02:38:10.723Z,24.50
2018-08-24T02:40:38.840Z,24.23
2018-08-24T02:43:06.911Z,24.36
2018-08-24T02:45:34.994Z,24.11
2018-08-24T02:48:03.170Z,23.98
2018-08-24T02:50:31.283Z,24.15
2018-08-24T02:52:59.599Z,23.77
2018-08-24T02:55:27.834Z,23.82
2018-08-24T02:57:55.909Z,23.74
2018-08-24T03:00:24.018Z,23.78
2018-08-24T03:02:52.180Z,23.68
2018-08-24T03:05:20.349Z,24.00
2018-08-24T03:07:48.355Z,23.86
2018-08-24T03:10:16.470Z,23.75
2018-08-24T03:12:44.538Z,24.05
2018-08-24T03:15:12.651Z,23.71
2018-08-24T03:17:46.062Z,23.80
2018-08-24T03:20:14.539Z,24.06
2018-08-24T03:22:42.649Z,23.98
2018-08-24T03:25:10.882Z,23.85
2018-08-24T03:27:39.030Z,23.51
2018-08-24T03:30:07.131Z,23.63
2018-08-24T03:32:35.213Z,23.83
2018-08-24T03:35:03.367Z,23.78
2018-08-24T03:37:31.547Z,23.59
2018-08-24T03:39:59.754Z,23.63
2018-08-24T03:42:27.885Z,23.62
2018-08-24T03:44:55.985Z,23.66
2018-08-24T03:47:24.082Z,23.81
2018-08-24T03:49:53.215Z,23.72
2018-08-24T03:52:21.381Z,23.55
2018-08-24T03:54:49.465Z,23.64
2018-08-24T03:57:17.544Z,23.80
2018-08-24T03:59:45.660Z,23.78
2018-08-24T04:02:14.661Z,23.79
2018-08-24T04:04:42.786Z,23.40
2018-08-24T04:07:10.951Z,23.69
2018-08-24T04:09:39.230Z,23.63
2018-08-24T04:12:07.358Z,23.55
2018-08-24T04:14:35.420Z,23.64
2018-08-24T04:17:08.868Z,23.44
2018-08-24T04:19:37.163Z,23.54
2018-08-24T04:22:05.134Z,23.31
2018-08-24T04:24:33.215Z,23.50
2018-08-24T04:27:01.349Z,23.58
2018-08-24T04:29:29.508Z,23.43
2018-08-24T04:31:57.595Z,23.50
2018-08-24T04:34:25.761Z,23.32
2018-08-24T04:36:53.832Z,23.02
2018-08-24T04:39:22.014Z,22.94
2018-08-24T04:41:50.134Z,23.01
2018-08-24T04:44:18.215Z,23.00
2018-08-24T04:46:46.387Z,23.01
2018-08-24T04:49:14.941Z,22.86
2018-08-24T04:51:43.066Z,22.93
2018-08-24T04:54:11.159Z,23.04
2018-08-24T04:56:39.266Z,23.12
2018-08-24T04:59:07.364Z,23.05
2018-08-24T05:01:35.440Z,23.40
2018-08-24T05:04:03.496Z,23.28
2018-08-24T05:06:31.572Z,23.02
2018-08-24T05:08:59.615Z,23.10
2018-08-24T05:11:27.705Z,22.80
2018-08-24T05:13:55.777Z,22.93
2018-08-24T05:16:23.909Z,23.08
2018-08-24T05:18:52.021Z,22.85
2018-08-24T05:21:20.170Z,22.79
2018-08-24T05:23:48.224Z,22.84
2018-08-24T05:26:16.324Z,22.72
2018-08-24T05:28:45.343Z,22.83
2018-08-24T05:31:13.558Z,22.84
2018-08-24T05:33:41.726Z,22.96
2018-08-24T05:36:09.920Z,22.97
2018-08-24T05:38:38.053Z,23.18
2018-08-24T05:41:06.735Z,23.35
2018-08-24T05:43:34.957Z,23.24
2018-08-24T05:46:03.055Z,22.96
2018-08-24T05:48:31.179Z,22.80
2018-08-24T05:50:59.258Z,22.70
2018-08-24T05:53:27.404Z,23.13
2018-08-24T05:55:55.794Z,23.26
2018-08-24T05:58:24.061Z,22.99
2018-08-24T06:00:52.279Z,23.33
2018-08-24T06:03:20.526Z,23.01
2018-08-24T06:05:54.371Z,23.22
2018-08-24T06:08:22.459Z,23.21
2018-08-24T06:10:50.602Z,23.27
2018-08-24T06:13:20.193Z,23.39
2018-08-24T06:15:49.736Z,23.69
2018-08-24T06:18:17.856Z,23.50
2018-08-24T06:20:45.959Z,23.68
2018-08-24T06:23:14.642Z,23.33
2018-08-24T06:25:42.734Z,23.81
2018-08-24T06:28:10.962Z,23.71
2018-08-24T06:30:39.126Z,23.51
2018-08-24T06:33:07.242Z,23.90
2018-08-24T06:35:35.311Z,23.58
2018-08-24T06:38:03.427Z,23.49
2018-08-24T06:40:31.506Z,23.54
2018-08-24T06:42:59.608Z,24.00
2018-08-24T06:45:27.707Z,23.90
2018-08-24T06:47:55.982Z,23.78
2018-08-24T06:50:25.181Z,23.65
2018-08-24T06:52:53.364Z,23.83
2018-08-24T06:55:21.434Z,23.88
2018-08-24T06:57:49.893Z,24.06
2018-08-24T07:00:23.387Z,24.45
2018-08-24T07:02:51.531Z,23.98
2018-08-24T07:05:19.958Z,24.12
2018-08-24T07:07:48.534Z,24.40
2018-08-24T07:10:16.657Z,24.78
2018-08-24T07:12:45.487Z,24.65
2018-08-24T07:15:13.537Z,24.06
2018-08-24T07:17:46.927Z,23.81
2018-08-24T07:25:12.829Z,24.15
2018-08-24T07:27:40.916Z,24.06
2018-08-24T07:30:09.011Z,24.37
2018-08-24T07:32:37.188Z,24.12
2018-08-24T07:35:05.309Z,24.13
2018-08-24T07:37:33.359Z,23.39
2018-08-24T07:40:01.453Z,23.25
2018-08-24T07:42:35.535Z,23.50
2018-08-24T07:45:03.616Z,23.66
2018-08-24T07:47:31.707Z,23.37
2018-08-24T07:49:59.790Z,23.84
2018-08-24T07:52:28.112Z,23.76
2018-08-24T07:54:56.213Z,23.61
2018-08-24T07:57:24.296Z,23.39
2018-08-24T07:59:52.367Z,23.55
2018-08-24T08:02:25.138Z,23.61
2018-08-24T08:04:53.506Z,23.63
2018-08-24T08:07:21.688Z,23.53
2018-08-24T08:09:49.938Z,23.49
2018-08-24T08:12:18.034Z,23.51
2018-08-24T08:14:51.479Z,23.51
2018-08-24T08:17:19.587Z,23.57
2018-08-24T08:19:47.714Z,23.27
2018-08-24T08:22:16.016Z,23.37
2018-08-24T08:24:44.221Z,23.62
2018-08-24T08:27:12.282Z,23.52
2018-08-24T08:29:46.171Z,23.67
2018-08-24T08:32:14.552Z,23.53
2018-08-24T08:34:48.191Z,23.86
2018-08-24T08:37:16.315Z,23.45
2018-08-24T08:39:44.484Z,23.14
2018-08-24T08:42:12.584Z,23.58
2018-08-24T08:44:40.694Z,23.72
2018-08-24T08:47:08.914Z,23.59
2018-08-24T08:49:37.207Z,23.59
2018-08-24T08:52:05.350Z,23.57
2018-08-24T08:54:33.635Z,23.41
2018-08-24T08:57:01.782Z,23.51
2018-08-24T08:59:30.000Z,23.47
2018-08-24T09:01:58.167Z,23.40
2018-08-24T09:04:26.277Z,23.81
2018-08-24T09:06:54.383Z,23.77
2018-08-24T09:09:22.521Z,23.67
2018-08-24T09:11:50.631Z,23.69
2018-08-24T09:14:18.786Z,23.39
2018-08-24T09:16:46.903Z,23.27
2018-08-24T09:19:21.222Z,23.48
2018-08-24T09:21:54.657Z,22.94
2018-08-24T09:24:28.207Z,23.08
2018-08-24T09:27:01.951Z,23.29
2018-08-24T09:29:30.060Z,23.38
2018-08-24T09:31:59.623Z,23.10
2018-08-24T09:34:27.718Z,23.24
2018-08-24T09:36:55.822Z,23.38
2018-08-24T09:39:27.942Z,23.52
2018-08-24T09:41:58.363Z,23.20
2018-08-24T09:44:26.461Z,22.43
2018-08-24T09:47:00.112Z,22.38
2018-08-24T09:49:39.110Z,22.34
2018-08-24T09:52:12.511Z,22.35
2018-08-24T09:54:40.590Z,22.88
2018-08-24T09:57:08.735Z,22.92
2018-08-24T09:59:36.814Z,22.56
2018-08-24T10:02:10.192Z,22.29
2018-08-24T10:04:43.525Z,22.24
2018-08-24T10:07:17.014Z,22.09
2018-08-24T10:14:42.297Z,22.62
2018-08-24T10:17:10.498Z,22.11
2018-08-24T10:19:38.567Z,22.50
2018-08-24T10:22:06.699Z,22.51
2018-08-24T10:24:34.926Z,22.91
2018-08-24T10:27:02.992Z,22.48
2018-08-24T10:29:31.100Z,22.61
2018-08-24T10:31:59.261Z,23.30
2018-08-24T10:34:27.352Z,23.64
2018-08-24T10:36:55.397Z,23.64
2018-08-24T10:39:24.344Z,23.70
2018-08-24T10:41:53.549Z,24.38
2018-08-24T10:44:21.663Z,23.84
2018-08-24T10:46:49.808Z,23.89
2018-08-24T10:49:17.969Z,24.04
2018-08-24T10:51:46.385Z,24.15
2018-08-24T10:54:14.426Z,23.58
2018-08-24T10:56:42.498Z,23.67
2018-08-24T10:59:11.080Z,23.44
2018-08-24T11:01:39.203Z,23.12
2018-08-24T11:04:07.304Z,23.25
2018-08-24T11:06:35.366Z,23.64
2018-08-24T11:09:04.975Z,25.14
2018-08-24T11:11:40.991Z,24.69
2018-08-24T11:14:09.279Z,25.84
2018-08-24T11:16:37.556Z,25.24
2018-08-24T11:19:05.684Z,24.87
2018-08-24T11:21:34.271Z,25.00
2018-08-24T11:24:02.327Z,25.31
2018-08-24T11:26:30.422Z,26.81
2018-08-24T11:28:58.524Z,27.46
2018-08-24T11:31:26.602Z,27.15
2018-08-24T11:33:55.325Z,26.96
2018-08-24T11:36:23.463Z,26.49
2018-08-24T11:38:51.514Z,27.50
2018-08-24T11:41:19.640Z,27.60
2018-08-24T11:43:47.748Z,27.27
2018-08-24T11:46:16.584Z,26.94
2018-08-24T11:48:44.650Z,27.17
2018-08-24T11:51:12.720Z,27.94
2018-08-24T11:53:40.817Z,28.03
2018-08-24T11:56:08.977Z,29.41
2018-08-24T11:58:37.059Z,29.96
2018-08-24T12:01:05.144Z,30.30
2018-08-24T12:03:33.243Z,31.55
2018-08-24T12:06:01.474Z,30.59
2018-08-24T12:08:29.635Z,31.16
2018-08-24T12:10:57.657Z,30.85
2018-08-24T12:13:25.763Z,31.64
2018-08-24T12:15:54.106Z,31.04
2018-08-24T12:18:22.228Z,31.42
2018-08-24T12:20:50.336Z,31.75
2018-08-24T12:23:18.447Z,31.45
2018-08-24T12:25:46.884Z,32.59
2018-08-24T12:28:14.999Z,32.15
2018-08-24T12:30:43.075Z,33.09
2018-08-24T12:33:11.286Z,32.37
2018-08-24T12:35:39.413Z,32.53
2018-08-24T12:38:07.582Z,32.47
2018-08-24T12:40:35.644Z,31.53
2018-08-24T12:43:03.794Z,31.06
2018-08-24T12:45:31.855Z,33.20
2018-08-24T12:48:00.048Z,33.10
2018-08-24T12:50:28.150Z,34.53
2018-08-24T12:52:56.286Z,33.93
2018-08-24T12:55:24.413Z,32.71
2018-08-24T12:57:52.535Z,34.30
2018-08-24T13:00:20.641Z,33.24
2018-08-24T13:02:48.802Z,34.47
2018-08-24T13:05:17.379Z,34.14
2018-08-24T13:07:45.459Z,32.91
2018-08-24T13:10:13.544Z,29.90
2018-08-24T13:12:41.608Z,33.36
2018-08-24T13:15:10.726Z,32.33
2018-08-24T13:17:38.798Z,32.57
2018-08-24T13:20:06.875Z,33.80
2018-08-24T13:22:34.956Z,32.58
2018-08-24T13:25:03.035Z,33.09
2018-08-24T13:27:31.120Z,32.15
2018-08-24T13:29:59.188Z,31.47
2018-08-24T13:32:27.270Z,30.73
2018-08-24T13:34:55.358Z,29.91
2018-08-24T13:37:23.427Z,30.80
2018-08-24T13:39:51.792Z,32.26
2018-08-24T13:42:19.866Z,32.23
2018-08-24T13:44:47.974Z,31.94
2018-08-24T13:47:16.118Z,31.02
2018-08-24T13:49:44.159Z,30.33
2018-08-24T13:52:12.463Z,32.13
2018-08-24T13:54:41.022Z,31.50
2018-08-24T13:57:09.059Z,31.58
2018-08-24T13:59:37.216Z,31.47
2018-08-24T14:02:05.294Z,31.11
2018-08-24T14:04:33.342Z,31.96
2018-08-24T14:07:01.446Z,32.20
2018-08-24T14:09:29.567Z,31.22
2018-08-24T14:11:57.704Z,31.17
2018-08-24T14:14:25.778Z,30.87
2018-08-24T14:16:53.838Z,29.50
2018-08-24T14:19:21.923Z,30.81
2018-08-24T14:21:49.977Z,31.37
2018-08-24T14:24:18.115Z,31.84
2018-08-24T14:26:46.194Z,31.54
2018-08-24T14:29:14.279Z,30.92
2018-08-24T14:31:42.414Z,31.31
2018-08-24T14:34:10.469Z,33.48
2018-08-24T14:36:38.978Z,32.29
2018-08-24T14:39:08.318Z,32.53
2018-08-24T14:41:36.415Z,30.94
2018-08-24T14:44:04.727Z,30.02
2018-08-24T14:46:32.809Z,31.35
2018-08-24T14:49:01.911Z,30.38
2018-08-24T14:51:30.561Z,28.75
2018-08-24T14:53:58.654Z,28.56
2018-08-24T14:56:26.714Z,28.41
2018-08-24T14:58:54.837Z,28.16
2018-08-24T15:01:23.035Z,27.97
2018-08-24T15:03:51.142Z,28.00
2018-08-24T15:06:19.243Z,27.77
2018-08-24T15:08:47.582Z,27.19
2018-08-24T15:11:15.753Z,27.14
2018-08-24T15:13:43.792Z,26.95
2018-08-24T15:16:11.955Z,26.72
2018-08-24T15:18:40.054Z,26.95
2018-08-24T15:21:08.152Z,26.93
2018-08-24T15:23:36.323Z,26.33
2018-08-24T15:26:04.498Z,26.11
2018-08-24T15:28:32.702Z,26.31
2018-08-24T15:31:00.798Z,26.36
2018-08-24T15:33:29.049Z,26.28
2018-08-24T15:35:57.434Z,26.35
2018-08-24T15:38:25.611Z,25.83
2018-08-24T15:40:53.776Z,25.96
2018-08-24T15:43:21.947Z,25.91
2018-08-24T15:45:50.039Z,25.95
2018-08-24T15:48:18.227Z,25.97
2018-08-24T15:50:46.467Z,25.73
2018-08-24T15:53:14.707Z,25.79
2018-08-24T15:55:42.821Z,25.81
2018-08-24T15:58:17.642Z,26.36
2018-08-24T16:00:45.779Z,25.81
2018-08-24T16:03:13.870Z,25.48
2018-08-24T16:05:41.990Z,25.64
2018-08-24T16:08:10.059Z,25.61
2018-08-24T16:10:38.111Z,25.45
2018-08-24T16:13:06.251Z,26.21
2018-08-24T16:15:34.327Z,25.89
2018-08-24T16:18:07.744Z,25.74
2018-08-24T16:20:35.843Z,26.04
2018-08-24T16:23:03.927Z,25.80
2018-08-24T16:25:32.091Z,25.96
2018-08-24T16:28:00.116Z,25.09
2018-08-24T16:30:28.215Z,25.59
2018-08-24T16:32:56.308Z,25.12
2018-08-24T16:35:24.404Z,25.13
2018-08-24T16:37:52.562Z,25.35
2018-08-24T16:40:20.648Z,25.49
2018-08-24T16:42:48.715Z,25.32
2018-08-24T16:45:16.796Z,25.26
2018-08-24T16:47:44.862Z,25.23
2018-08-24T16:50:21.001Z,25.14
2018-08-24T16:53:19.964Z,25.40
2018-08-24T16:55:48.420Z,25.08
2018-08-24T16:58:16.495Z,25.34
2018-08-24T17:00:44.626Z,24.84
2018-08-24T17:03:12.760Z,24.82
2018-08-24T17:05:40.892Z,24.87
2018-08-24T17:08:09.374Z,24.92
2018-08-24T17:10:37.568Z,24.84
2018-08-24T17:13:05.655Z,25.02
2018-08-24T17:15:33.936Z,24.37
2018-08-24T17:18:02.131Z,24.61
2018-08-24T17:20:30.231Z,24.36
2018-08-24T17:22:58.347Z,24.59
2018-08-24T17:25:26.511Z,25.08
2018-08-24T17:27:54.615Z,24.39
2018-08-24T17:30:22.768Z,24.54
2018-08-24T17:32:50.946Z,24.29
2018-08-24T17:35:19.527Z,24.29
2018-08-24T17:37:48.527Z,24.10
2018-08-24T17:40:16.656Z,24.21
2018-08-24T17:43:25.989Z,24.23
2018-08-24T17:46:18.494Z,24.07
2018-08-24T17:48:46.609Z,23.85
2018-08-24T17:51:14.730Z,24.04
2018-08-24T17:53:42.817Z,23.93
2018-08-24T17:56:10.989Z,23.62
2018-08-24T17:58:39.145Z,23.79
2018-08-24T18:01:07.658Z,23.42
2018-08-24T18:03:35.809Z,23.40
2018-08-24T18:06:04.014Z,23.66
2018-08-24T18:08:32.114Z,23.55
2018-08-24T18:11:00.418Z,23.67
2018-08-24T18:13:28.641Z,23.61
2018-08-24T18:15:57.569Z,23.28
2018-08-24T18:18:26.040Z,23.27
2018-08-24T18:20:54.121Z,23.58
2018-08-24T18:23:22.200Z,23.50
2018-08-24T18:25:50.603Z,23.50
2018-08-24T18:28:18.724Z,23.46
2018-08-24T18:30:46.884Z,23.29
2018-08-24T18:33:14.991Z,23.43
2018-08-24T18:35:43.148Z,22.96
2018-08-24T18:38:11.348Z,23.25
2018-08-24T18:40:39.673Z,23.29
2018-08-24T18:43:07.871Z,23.30
2018-08-24T18:45:36.061Z,23.70
2018-08-24T18:48:04.355Z,23.80
2018-08-24T18:50:32.559Z,23.66
2018-08-24T18:53:00.709Z,23.61
2018-08-24T18:55:32.346Z,23.66
2018-08-24T18:58:00.572Z,23.84
2018-08-24T19:00:28.651Z,23.97
2018-08-24T19:02:56.899Z,23.50
2018-08-24T19:05:25.100Z,23.36
2018-08-24T19:07:57.379Z,23.15
2018-08-24T19:10:26.500Z,23.61
2018-08-24T19:12:54.682Z,23.41
2018-08-24T19:15:22.935Z,23.60
2018-08-24T19:17:56.328Z,23.64
2018-08-24T19:20:29.810Z,23.96
2018-08-24T19:22:57.931Z,23.82
2018-08-24T19:25:26.206Z,23.78
2018-08-24T19:27:59.779Z,23.62
2018-08-24T19:30:34.739Z,23.97
2018-08-24T19:33:03.244Z,24.14
2018-08-24T19:35:31.700Z,24.15
2018-08-24T19:37:59.867Z,24.18
2018-08-24T19:40:33.182Z,23.72
2018-08-24T19:43:01.279Z,23.71
2018-08-24T19:45:35.947Z,23.86
2018-08-24T19:48:09.455Z,23.61
2018-08-24T19:50:37.612Z,23.59
2018-08-24T19:53:05.806Z,23.40
2018-08-24T19:55:33.869Z,23.45
2018-08-24T19:58:07.251Z,23.30
2018-08-24T20:00:35.458Z,23.30
2018-08-24T20:03:03.483Z,23.22
2018-08-24T20:05:31.570Z,23.12
2018-08-24T20:08:05.095Z,23.13
2018-08-24T20:10:33.226Z,23.10
2018-08-24T20:13:01.333Z,23.21
2018-08-24T20:15:34.614Z,23.19
2018-08-24T20:18:02.711Z,23.33
2018-08-24T20:20:31.015Z,23.34
2018-08-24T20:22:59.138Z,23.37
2018-08-24T20:25:27.223Z,23.46
2018-08-24T20:27:55.468Z,23.33
2018-08-24T20:30:23.604Z,23.41
2018-08-24T20:32:51.680Z,23.24
2018-08-24T20:35:20.150Z,23.02
2018-08-24T20:37:49.362Z,23.30
2018-08-24T20:40:17.501Z,23.28
2018-08-24T20:42:45.594Z,23.24
2018-08-24T20:45:13.679Z,23.25
2018-08-24T20:47:41.806Z,23.04
2018-08-24T20:50:09.884Z,22.92
2018-08-24T20:52:38.126Z,22.87
2018-08-24T20:55:06.341Z,22.92
2018-08-24T20:57:34.440Z,22.99
2018-08-24T21:00:02.653Z,22.98
2018-08-24T21:02:30.774Z,22.87
2018-08-24T21:04:58.872Z,23.09
2018-08-24T21:07:27.754Z,23.08
2018-08-24T21:09:55.883Z,23.07
2018-08-24T21:12:24.035Z,23.02
2018-08-24T21:14:52.191Z,23.19
2018-08-24T21:17:20.285Z,23.12
2018-08-24T21:19:49.442Z,23.02
2018-08-24T21:22:17.796Z,22.85
2018-08-24T21:24:46.096Z,23.00
2018-08-24T21:27:14.217Z,23.00
2018-08-24T21:29:42.395Z,23.01
2018-08-24T21:32:10.541Z,23.03
2018-08-24T21:34:38.791Z,22.88
2018-08-24T21:37:06.928Z,22.92
2018-08-24T21:39:35.021Z,22.95
2018-08-24T21:42:03.226Z,22.92
2018-08-24T21:44:31.303Z,22.91
2018-08-24T21:46:59.753Z,22.78
2018-08-24T21:49:28.208Z,22.50
2018-08-24T21:51:56.312Z,22.32
2018-08-24T21:54:24.463Z,22.38
2018-08-24T21:56:52.593Z,22.30
2018-08-24T21:59:20.770Z,22.35
2018-08-24T22:01:49.510Z,22.54
2018-08-24T22:04:17.765Z,22.53
2018-08-24T22:06:45.856Z,22.20
2018-08-24T22:09:14.064Z,22.30
2018-08-24T22:11:42.580Z,22.15
2018-08-24T22:14:10.749Z,22.24
2018-08-24T22:16:38.880Z,21.91
2018-08-24T22:19:07.012Z,21.75
2018-08-24T22:21:35.106Z,22.08
2018-08-24T22:24:03.330Z,21.84
2018-08-24T22:26:31.625Z,21.67
2018-08-24T22:28:59.843Z,21.79
2018-08-24T22:31:27.995Z,21.81
2018-08-24T22:33:56.288Z,21.76
2018-08-24T22:36:24.407Z,22.04
2018-08-24T22:38:52.536Z,22.02
2018-08-24T22:41:20.754Z,21.95
2018-08-24T22:43:51.583Z,21.79
2018-08-24T22:46:19.806Z,21.86
2018-08-24T22:48:47.874Z,21.71
2018-08-24T22:51:16.129Z,21.76
2018-08-24T22:53:44.279Z,21.63
2018-08-24T22:56:12.342Z,21.65
2018-08-24T22:58:40.670Z,21.74
2018-08-24T23:01:09.190Z,21.67
2018-08-24T23:03:37.407Z,21.53
2018-08-24T23:06:06.076Z,21.33
2018-08-24T23:08:34.208Z,21.35
2018-08-24T23:11:02.418Z,21.47
2018-08-24T23:13:30.597Z,21.39
2018-08-24T23:15:58.772Z,21.44
2018-08-24T23:18:26.964Z,21.32
2018-08-24T23:20:55.122Z,21.39
2018-08-24T23:23:23.265Z,21.28
2018-08-24T23:25:51.348Z,21.07
2018-08-24T23:29:40.335Z,21.17
2018-08-24T23:32:08.475Z,20.91
2018-08-24T23:34:37.421Z,20.95
2018-08-24T23:37:07.036Z,20.84
2018-08-24T23:39:35.207Z,20.71
2018-08-24T23:42:03.455Z,20.76
2018-08-24T23:44:31.850Z,20.79
2018-08-24T23:47:00.040Z,20.83
2018-08-24T23:49:28.210Z,20.62
2018-08-24T23:51:56.354Z,20.44
2018-08-24T23:54:24.499Z,20.54
2018-08-24T23:56:52.617Z,20.59
2018-08-24T23:59:20.761Z,20.59
